Time;durP1;ratioP1;P1;durP2;ratioP2;P2;SDS_P1;SDS_P2;PMS_P1;PMS_P2;Temp;Humidity;BMP_temperature;BMP_pressure;BME280_temperature;BME280_humidity;BME280_pressure;Samples;Min_cycle;Max_cycle;Signal;HPM_P1;HPM_P2
2021/04/12 00:00:51;;;;;;;;;;;;;;;20.98;31.27;102333.22;2207983;39;114814;-58
2021/04/12 00:02:28;;;;;;;;;;;;;;;20.97;31.63;102325.91;2207224;39;114977;-57
2021/04/12 00:04:03;;;;;;;;;;;;;;;20.96;31.58;102327.03;2205845;39;114558;-57
2021/04/12 00:05:39;;;;;;;;;;;;;;;20.95;31.47;102336.56;2205096;39;115613;-57
2021/04/12 00:07:19;;;;;;;;;;;;;;;20.95;31.66;102338.53;2206835;39;115625;-57
2021/04/12 00:08:54;;;;;;;;;;;;;;;20.94;31.48;102331.25;2200746;39;116029;-57
2021/04/12 00:10:32;;;;;;;;;;;;;;;20.92;31.56;102333.47;2206065;39;116263;-57
2021/04/12 00:12:13;;;;;;;;;;;;;;;20.91;31.64;102334.59;2199420;39;115563;-57
2021/04/12 00:13:50;;;;;;;;;;;;;;;20.90;31.52;102336.56;2199924;39;116300;-57
2021/04/12 00:15:31;;;;;;;;;;;;;;;20.90;31.90;102332.91;2203693;39;116242;-58
2021/04/12 00:17:04;;;;;;;;;;;;;;;20.88;31.60;102338.81;2207486;39;115941;-58
2021/04/12 00:18:38;;;;;;;;;;;;;;;20.87;31.97;102339.94;2209240;39;115562;-58
2021/04/12 00:20:17;;;;;;;;;;;;;;;20.87;32.19;102334.31;2204322;39;115720;-56
2021/04/12 00:21:48;;;;;;;;;;;;;;;20.84;32.61;102341.34;2203046;39;116151;-58
2021/04/12 00:23:33;;;;;;;;;;;;;;;20.83;32.69;102339.66;2204388;39;114558;-56
2021/04/12 00:25:05;;;;;;;;;;;;;;;20.82;32.65;102339.91;2207317;39;114872;-57
2021/04/12 00:26:44;;;;;;;;;;;;;;;20.81;32.54;102347.50;2206006;39;114522;-58
2021/04/12 00:28:15;;;;;;;;;;;;;;;20.80;32.74;102356.22;2200898;39;113671;-58
2021/04/12 00:29:56;;;;;;;;;;;;;;;20.82;32.59;102339.91;2208155;39;113743;-57
2021/04/12 00:31:32;;;;;;;;;;;;;;;20.79;32.98;102338.53;2210412;39;113727;-58
2021/04/12 00:33:08;;;;;;;;;;;;;;;20.79;32.60;102355.38;2210499;39;114269;-57
2021/04/12 00:34:46;;;;;;;;;;;;;;;20.77;32.78;102353.94;2201081;39;113703;-58
2021/04/12 00:36:17;;;;;;;;;;;;;;;20.76;32.86;102352.25;2203192;39;113681;-58
2021/04/12 00:37:52;;;;;;;;;;;;;;;20.75;32.53;102351.44;2205286;39;113915;-57
2021/04/12 00:39:36;;;;;;;;;;;;;;;20.74;32.65;102358.16;2205720;39;113798;-57
2021/04/12 00:41:17;;;;;;;;;;;;;;;20.74;32.56;102352.53;2205311;39;113721;-57
2021/04/12 00:43:00;;;;;;;;;;;;;;;20.72;32.79;102351.97;2202214;39;113820;-57
2021/04/12 00:44:39;;;;;;;;;;;;;;;20.70;33.13;102359.84;2203353;39;113859;-57
2021/04/12 00:46:11;;;;;;;;;;;;;;;20.71;32.58;102358.72;2205079;39;113818;-56
2021/04/12 00:47:50;;;;;;;;;;;;;;;20.70;32.82;102354.22;2205026;39;113706;-57
2021/04/12 00:49:31;;;;;;;;;;;;;;;20.68;32.73;102355.59;2204247;39;114026;-57
2021/04/12 00:51:12;;;;;;;;;;;;;;;20.68;33.67;102348.03;2210573;39;113573;-57
2021/04/12 00:52:51;;;;;;;;;;;;;;;20.66;32.98;102344.66;2209862;39;114885;-58
2021/04/12 00:54:31;;;;;;;;;;;;;;;20.64;32.78;102348.84;2208222;39;114975;-58
2021/04/12 00:56:12;;;;;;;;;;;;;;;20.64;32.88;102346.88;2203029;39;114831;-57
2021/04/12 00:57:43;;;;;;;;;;;;;;;20.62;33.24;102351.94;2202974;39;115214;-58
2021/04/12 00:59:24;;;;;;;;;;;;;;;20.63;33.12;102344.34;2205037;39;114819;-57
2021/04/12 01:01:14;;;;;;;;;;;;;;;20.60;33.38;102348.56;2200715;39;115376;-57
2021/04/12 01:02:55;;;;;;;;;;;;;;;20.62;33.19;102340.72;2199127;39;115683;-57
2021/04/12 01:04:36;;;;;;;;;;;;;;;20.59;33.17;102332.81;2203354;39;114870;-58
2021/04/12 01:06:15;;;;;;;;;;;;;;;20.57;33.52;102342.66;2205171;39;115119;-58
2021/04/12 01:07:56;;;;;;;;;;;;;;;20.57;33.32;102339.84;2207006;39;115000;-59
2021/04/12 01:09:37;;;;;;;;;;;;;;;20.56;33.96;102343.75;2207455;39;115030;-57
2021/04/12 01:11:09;;;;;;;;;;;;;;;20.57;33.92;102345.47;2203499;39;114835;-57
2021/04/12 01:12:51;;;;;;;;;;;;;;;20.58;33.88;102347.16;2207855;39;115503;-58
2021/04/12 01:14:32;;;;;;;;;;;;;;;20.57;34.12;102342.66;2212068;39;115464;-57
2021/04/12 01:16:03;;;;;;;;;;;;;;;20.52;34.02;102339.81;2202578;39;115553;-57
2021/04/12 01:17:36;;;;;;;;;;;;;;;20.49;34.14;102338.38;2198221;39;115849;-58
2021/04/12 01:19:25;;;;;;;;;;;;;;;20.50;34.08;102340.09;2202905;39;115581;-57
2021/04/12 01:21:07;;;;;;;;;;;;;;;20.51;34.14;102340.94;2199349;39;115689;-58
2021/04/12 01:22:45;;;;;;;;;;;;;;;20.50;34.28;102342.03;2205584;39;115455;-58
2021/04/12 01:24:26;;;;;;;;;;;;;;;20.50;34.52;102342.88;2204498;39;114646;-57
2021/04/12 01:26:07;;;;;;;;;;;;;;;20.48;34.77;102341.50;2200473;39;115621;-58
2021/04/12 01:27:41;;;;;;;;;;;;;;;20.46;34.63;102336.13;2205158;39;116405;-57
2021/04/12 01:29:22;;;;;;;;;;;;;;;20.43;34.44;102339.50;2205338;39;116432;-57
2021/04/12 01:31:03;;;;;;;;;;;;;;;20.44;34.46;102337.53;2204413;39;115632;-58
2021/04/12 01:32:45;;;;;;;;;;;;;;;20.45;34.69;102339.22;2205115;39;116151;-57
2021/04/12 01:34:26;;;;;;;;;;;;;;;20.42;34.63;102340.63;2202899;39;115711;-58
2021/04/12 01:36:07;;;;;;;;;;;;;;;20.41;34.74;102341.72;2209922;39;115641;-57
2021/04/12 01:37:50;;;;;;;;;;;;;;;20.39;34.66;102341.19;2212528;39;115577;-60
2021/04/12 01:39:31;;;;;;;;;;;;;;;20.39;34.52;102333.59;2210588;39;113605;-57
2021/04/12 01:41:12;;;;;;;;;;;;;;;20.38;34.93;102339.47;2205291;39;113780;-56
2021/04/12 01:42:53;;;;;;;;;;;;;;;20.36;35.07;102338.91;2209373;39;113585;-57
2021/04/12 01:44:34;;;;;;;;;;;;;;;20.36;34.46;102339.75;2205338;39;113801;-58
2021/04/12 01:46:12;;;;;;;;;;;;;;;20.37;34.77;102340.59;2203144;39;113801;-58
2021/04/12 01:47:53;;;;;;;;;;;;;;;20.36;34.71;102338.91;2200806;39;113723;-56
2021/04/12 01:49:25;;;;;;;;;;;;;;;20.32;34.85;102343.38;2203825;39;113844;-56
2021/04/12 01:51:06;;;;;;;;;;;;;;;20.32;34.96;102341.41;2201585;39;113743;-57
2021/04/12 01:52:49;;;;;;;;;;;;;;;20.31;34.91;102352.91;2203365;39;113707;-58
2021/04/12 01:54:21;;;;;;;;;;;;;;;20.31;35.31;102348.13;2205067;39;113671;-57
2021/04/12 01:55:55;;;;;;;;;;;;;;;20.27;35.36;102344.16;2207384;39;113927;-56
2021/04/12 01:57:30;;;;;;;;;;;;;;;20.30;35.07;102357.69;2207801;39;113544;-58
2021/04/12 01:59:02;;;;;;;;;;;;;;;20.29;35.02;102360.72;2205006;39;113864;-58
2021/04/12 02:00:35;;;;;;;;;;;;;;;20.26;35.43;102356.50;2207606;39;113658;-57
2021/04/12 02:02:07;;;;;;;;;;;;;;;20.24;35.08;102361.53;2204906;39;115000;-58
2021/04/12 02:03:48;;;;;;;;;;;;;;;20.23;35.33;102361.81;2205263;39;114857;-57
2021/04/12 02:05:20;;;;;;;;;;;;;;;20.21;35.24;102364.91;2199502;39;114822;-58
2021/04/12 02:06:58;;;;;;;;;;;;;;;20.21;35.17;102364.06;2205174;39;114828;-59
2021/04/12 02:08:39;;;;;;;;;;;;;;;20.19;35.01;102355.91;2209788;39;114933;-58
2021/04/12 02:10:11;;;;;;;;;;;;;;;20.18;35.63;102354.22;2210261;39;114908;-59
2021/04/12 02:11:46;;;;;;;;;;;;;;;20.20;35.11;102353.94;2204402;39;114873;-59
2021/04/12 02:13:19;;;;;;;;;;;;;;;20.20;35.04;102345.53;2211169;39;114994;-58
2021/04/12 02:15:00;;;;;;;;;;;;;;;20.19;35.14;102352.25;2207023;39;114931;-59
2021/04/12 02:16:41;;;;;;;;;;;;;;;20.18;35.13;102362.63;2209649;39;114918;-59
2021/04/12 02:18:22;;;;;;;;;;;;;;;20.17;35.07;102360.94;2211163;39;114774;-58
2021/04/12 02:19:59;;;;;;;;;;;;;;;20.15;35.47;102360.38;2210981;39;114825;-57
2021/04/12 02:21:31;;;;;;;;;;;;;;;20.16;35.09;102355.59;2209616;39;114901;-57
2021/04/12 02:23:12;;;;;;;;;;;;;;;20.14;35.16;102367.09;2212032;39;114821;-58
2021/04/12 02:24:53;;;;;;;;;;;;;;;20.13;35.11;102359.78;2206203;39;116172;-58
2021/04/12 02:26:25;;;;;;;;;;;;;;;20.14;35.40;102366.25;2207644;39;116458;-57
2021/04/12 02:28:05;;;;;;;;;;;;;;;20.14;34.77;102366.25;2206200;39;115559;-58
2021/04/12 02:29:46;;;;;;;;;;;;;;;20.13;35.30;102364.53;2209007;39;115562;-57
2021/04/12 02:33:03;;;;;;;;;;;;;;;20.09;35.18;102367.06;2205759;39;115755;-58
2021/04/12 02:34:38;;;;;;;;;;;;;;;20.07;35.14;102360.03;2210062;39;116071;-57
2021/04/12 02:36:12;;;;;;;;;;;;;;;20.06;35.55;102363.97;2211344;39;115602;-56
2021/04/12 02:37:44;;;;;;;;;;;;;;;20.07;35.25;102368.47;2211317;39;115997;-57
2021/04/12 02:39:16;;;;;;;;;;;;;;;20.05;35.23;102362.25;2210817;39;115527;-58
2021/04/12 02:40:50;;;;;;;;;;;;;;;20.04;35.34;102360.56;2210920;39;115467;-57
2021/04/12 02:42:31;;;;;;;;;;;;;;;20.03;35.43;102361.72;2211072;39;116080;-59
2021/04/12 02:44:03;;;;;;;;;;;;;;;20.02;35.11;102355.25;2211311;39;115603;-57
2021/04/12 02:45:44;;;;;;;;;;;;;;;20.02;35.69;102357.19;2208617;39;115437;-57
2021/04/12 02:47:18;;;;;;;;;;;;;;;20.02;35.37;102360.84;2206025;39;115564;-58
2021/04/12 02:48:53;;;;;;;;;;;;;;;19.97;35.18;102363.63;2210641;39;113656;-58
2021/04/12 02:50:25;;;;;;;;;;;;;;;19.97;35.16;102372.88;2212649;39;113976;-58
2021/04/12 02:52:06;;;;;;;;;;;;;;;19.98;35.51;102368.13;2208001;39;113595;-56
2021/04/12 02:53:47;;;;;;;;;;;;;;;19.97;35.32;102375.69;2212093;39;114015;-57
2021/04/12 02:55:25;;;;;;;;;;;;;;;19.94;35.24;102370.59;2212367;39;113768;-58
2021/04/12 02:57:06;;;;;;;;;;;;;;;19.91;35.48;102376.75;2209795;39;113778;-58
2021/04/12 02:58:47;;;;;;;;;;;;;;;19.93;35.39;102370.91;2205418;39;113551;-59
2021/04/12 03:00:28;;;;;;;;;;;;;;;19.90;35.48;102363.84;2211873;39;113766;-58
2021/04/12 03:02:09;;;;;;;;;;;;;;;19.92;35.24;102367.25;2214284;39;114129;-59
2021/04/12 03:03:43;;;;;;;;;;;;;;;19.87;35.57;102367.19;2211944;39;113774;-56
2021/04/12 03:05:15;;;;;;;;;;;;;;;19.87;35.42;102370.00;2216776;39;113664;-57
2021/04/12 03:06:56;;;;;;;;;;;;;;;19.88;35.25;102368.03;2217895;39;113731;-57
2021/04/12 03:08:28;;;;;;;;;;;;;;;19.85;35.53;102372.22;2205910;39;113710;-56
2021/04/12 03:10:09;;;;;;;;;;;;;;;19.85;35.31;102365.78;2209333;39;113688;-63
2021/04/12 03:11:50;;;;;;;;;;;;;;;19.86;35.17;102373.06;2211779;39;114842;-58
2021/04/12 03:13:31;;;;;;;;;;;;;;;19.85;35.29;102377.00;2211937;39;114936;-57
2021/04/12 03:15:12;;;;;;;;;;;;;;;19.84;35.16;102380.91;2210438;39;115419;-59
2021/04/12 03:16:56;;;;;;;;;;;;;;;19.83;35.52;102376.41;2201305;39;114759;-57
2021/04/12 03:18:27;;;;;;;;;;;;;;;19.82;35.38;102383.13;2202912;39;114941;-58
2021/04/12 03:20:02;;;;;;;;;;;;;;;19.82;35.07;102389.59;2212268;39;114891;-58
2021/04/12 03:21:36;;;;;;;;;;;;;;;19.79;35.18;102390.16;2217763;39;114807;-56
2021/04/12 03:23:16;;;;;;;;;;;;;;;19.78;35.32;102390.41;2208245;39;114842;-61
2021/04/12 03:24:57;;;;;;;;;;;;;;;19.77;35.24;102383.94;2211050;39;115132;-58
2021/04/12 03:26:31;;;;;;;;;;;;;;;19.77;35.18;102380.28;2213231;39;115241;-58
2021/04/12 03:28:22;;;;;;;;;;;;;;;19.78;35.41;102384.78;2211396;39;114860;-57
2021/04/12 03:30:06;;;;;;;;;;;;;;;19.77;35.49;102388.69;2198880;39;114862;-58
2021/04/12 03:31:47;;;;;;;;;;;;;;;19.76;35.44;102387.84;2204689;39;115299;-57
2021/04/12 03:33:25;;;;;;;;;;;;;;;19.74;35.15;102384.50;2214194;39;115030;-58
2021/04/12 03:35:06;;;;;;;;;;;;;;;19.75;35.52;102390.94;2208181;39;115484;-59
2021/04/12 03:36:38;;;;;;;;;;;;;;;19.71;35.61;102385.03;2208003;39;114767;-57
2021/04/12 03:38:19;;;;;;;;;;;;;;;19.72;35.52;102383.91;2213431;39;115543;-57
2021/04/12 03:39:53;;;;;;;;;;;;;;;19.72;35.28;102386.69;2210519;39;115597;-58
2021/04/12 03:41:26;;;;;;;;;;;;;;;19.70;35.23;102382.50;2209664;39;115836;-57
2021/04/12 03:43:13;;;;;;;;;;;;;;;19.70;35.25;102382.50;2211664;39;114727;-58
2021/04/12 03:44:54;;;;;;;;;;;;;;;19.67;35.41;102378.25;2208092;39;115744;-61
2021/04/12 03:46:27;;;;;;;;;;;;;;;19.68;35.23;102376.28;2210494;39;116048;-57
2021/04/12 03:48:08;;;;;;;;;;;;;;;19.66;35.56;102378.53;2209377;39;115559;-57
2021/04/12 03:49:49;;;;;;;;;;;;;;;19.67;35.54;102372.63;2207594;39;115603;-57
2021/04/12 03:51:32;;;;;;;;;;;;;;;19.71;35.74;102372.97;2208711;39;114749;-58
2021/04/12 03:53:16;;;;;;;;;;;;;;;19.75;35.88;102382.53;2207834;39;115959;-64
2021/04/12 03:54:52;;;;;;;;;;;;;;;19.76;35.99;102382.25;2208379;39;116444;-59
2021/04/12 03:56:33;;;;;;;;;;;;;;;19.81;36.01;102382.28;2213882;39;115492;-59
2021/04/12 03:58:09;;;;;;;;;;;;;;;19.85;36.15;102393.84;2211839;39;113883;-58
2021/04/12 03:59:42;;;;;;;;;;;;;;;19.87;36.25;102381.22;2210230;39;113811;-59
2021/04/12 04:01:28;;;;;;;;;;;;;;;19.91;36.10;102381.53;2211732;39;113584;-58
2021/04/12 04:03:02;;;;;;;;;;;;;;;19.94;36.21;102379.00;2215260;39;113869;-60
2021/04/12 04:04:57;;;;;;;;;;;;;;;19.98;36.36;102380.19;2207590;39;113739;-58
2021/04/12 04:06:39;;;;;;;;;;;;;;;20.03;36.37;102376.59;2213200;39;113939;-58
2021/04/12 04:08:11;;;;;;;;;;;;;;;20.07;36.75;102377.72;2213517;39;113774;-58
2021/04/12 04:10:02;;;;;;;;;;;;;;;20.12;36.79;102377.75;2211433;39;113795;-58
2021/04/12 04:11:43;;;;;;;;;;;;;;;20.18;36.86;102384.22;2206366;39;114032;-58
2021/04/12 04:13:24;;;;;;;;;;;;;;;20.22;36.74;102389.03;2210431;39;113892;-58
2021/04/12 04:14:55;;;;;;;;;;;;;;;20.26;36.64;102384.56;2211829;39;113637;-57
2021/04/12 04:16:36;;;;;;;;;;;;;;;20.32;36.90;102385.47;2212308;39;113836;-57
2021/04/12 04:18:17;;;;;;;;;;;;;;;20.37;36.89;102382.69;2211489;39;113901;-58
2021/04/12 04:19:48;;;;;;;;;;;;;;;20.43;36.38;102381.63;2210138;39;113832;-57
2021/04/12 04:21:22;;;;;;;;;;;;;;;20.47;36.35;102393.13;2207124;39;114033;-58
2021/04/12 04:23:04;;;;;;;;;;;;;;;20.50;36.22;102385.00;2209634;39;114896;-58
2021/04/12 04:24:45;;;;;;;;;;;;;;;20.54;36.28;102382.50;2211911;39;114818;-59
2021/04/12 04:26:26;;;;;;;;;;;;;;;20.59;36.45;102383.38;2205622;39;115221;-59
2021/04/12 04:27:58;;;;;;;;;;;;;;;20.63;36.23;102378.03;2211565;39;114903;-60
2021/04/12 04:29:39;;;;;;;;;;;;;;;20.68;35.99;102386.50;2212559;39;115856;-61
2021/04/12 04:31:25;;;;;;;;;;;;;;;20.72;35.83;102384.81;2212692;39;115815;-59
2021/04/12 04:33:03;;;;;;;;;;;;;;;20.75;36.21;102379.53;2211845;39;114842;-58
2021/04/12 04:34:44;;;;;;;;;;;;;;;20.80;36.22;102384.31;2210734;39;114918;-59
2021/04/12 04:36:25;;;;;;;;;;;;;;;20.84;35.86;102379.81;2211606;39;115062;-58
2021/04/12 04:38:07;;;;;;;;;;;;;;;20.89;36.23;102387.44;2211417;39;114904;-57
2021/04/12 04:39:49;;;;;;;;;;;;;;;20.95;36.21;102383.50;2211528;39;114697;-57
2021/04/12 04:41:21;;;;;;;;;;;;;;;20.99;35.78;102376.19;2210796;39;115349;-57
2021/04/12 04:43:02;;;;;;;;;;;;;;;21.03;36.29;102378.19;2211376;39;114794;-58
2021/04/12 04:44:35;;;;;;;;;;;;;;;21.07;36.35;102389.72;2214480;39;114895;-59
2021/04/12 04:46:16;;;;;;;;;;;;;;;21.09;36.15;102385.50;2212420;39;115920;-57
2021/04/12 04:47:57;;;;;;;;;;;;;;;21.14;35.95;102384.72;2203837;39;115404;-58
2021/04/12 04:49:38;;;;;;;;;;;;;;;21.17;35.66;102386.94;2212493;39;115456;-59
2021/04/12 04:51:16;;;;;;;;;;;;;;;21.21;35.93;102383.31;2216118;39;115553;-59
2021/04/12 04:52:47;;;;;;;;;;;;;;;21.24;35.83;102382.78;2207055;39;115913;-59
2021/04/12 04:54:31;;;;;;;;;;;;;;;21.28;35.44;102386.72;2206947;39;116050;-58
2021/04/12 04:56:05;;;;;;;;;;;;;;;21.31;35.45;102388.09;2208276;39;115636;-57
2021/04/12 04:57:42;;;;;;;;;;;;;;;21.36;35.36;102384.47;2213090;39;115619;-57
2021/04/12 04:59:23;;;;;;;;;;;;;;;21.38;35.29;102390.66;2203455;39;116127;-59
2021/04/12 05:01:04;;;;;;;;;;;;;;;21.43;35.17;102396.28;2207569;39;115654;-58
2021/04/12 05:02:35;;;;;;;;;;;;;;;21.47;35.74;102392.66;2209784;39;115619;-57
2021/04/12 05:04:12;;;;;;;;;;;;;;;21.49;35.19;102400.78;2211799;39;115542;-59
2021/04/12 05:05:53;;;;;;;;;;;;;;;21.52;35.49;102394.63;2213459;39;115655;-59
2021/04/12 05:07:27;;;;;;;;;;;;;;;21.56;35.46;102393.78;2210180;39;115549;-58
2021/04/12 05:09:08;;;;;;;;;;;;;;;21.58;35.00;102391.50;2211484;39;113631;-59
2021/04/12 05:10:49;;;;;;;;;;;;;;;21.63;35.93;102399.97;2205122;39;114032;-58
2021/04/12 05:12:31;;;;;;;;;;;;;;;21.66;35.50;102401.38;2209138;39;113634;-58
2021/04/12 05:14:12;;;;;;;;;;;;;;;21.69;34.89;102396.03;2209318;39;113756;-58
2021/04/12 05:15:43;;;;;;;;;;;;;;;21.72;34.70;102406.72;2210088;39;113723;-58
2021/04/12 05:17:24;;;;;;;;;;;;;;;21.77;35.09;102407.84;2210208;39;114019;-59
2021/04/12 05:19:05;;;;;;;;;;;;;;;21.80;34.75;102422.22;2206131;39;113686;-58
2021/04/12 05:20:37;;;;;;;;;;;;;;;21.82;34.95;102419.09;2210595;39;114011;-58
2021/04/12 05:22:11;;;;;;;;;;;;;;;21.84;35.02;102414.03;2211148;39;113838;-59
2021/04/12 05:23:52;;;;;;;;;;;;;;;21.86;34.68;102423.88;2212493;39;113810;-57
2021/04/12 05:25:28;;;;;;;;;;;;;;;21.88;34.67;102421.63;2210495;39;113801;-58
2021/04/12 05:27:00;;;;;;;;;;;;;;;21.92;34.99;102425.56;2212914;39;113631;-59
2021/04/12 05:28:43;;;;;;;;;;;;;;;21.94;34.75;102416.88;2215767;39;113860;-57
2021/04/12 05:30:24;;;;;;;;;;;;;;;21.96;34.53;102428.69;2214181;39;114036;-58
2021/04/12 05:32:05;;;;;;;;;;;;;;;21.99;34.28;102428.97;2207153;39;114987;-60
2021/04/12 05:33:42;;;;;;;;;;;;;;;22.02;34.66;102425.59;2205257;39;115086;-59
2021/04/12 05:35:13;;;;;;;;;;;;;;;22.04;34.72;102433.75;2204463;39;115290;-57
2021/04/12 05:36:54;;;;;;;;;;;;;;;22.06;34.86;102431.50;2208168;39;115901;-58
2021/04/12 05:38:35;;;;;;;;;;;;;;;22.10;34.49;102432.63;2211843;39;114987;-58
2021/04/12 05:40:06;;;;;;;;;;;;;;;22.11;34.40;102437.97;2211899;39;115297;-57
2021/04/12 05:41:50;;;;;;;;;;;;;;;22.14;34.67;102445.00;2205152;39;114889;-58
2021/04/12 05:43:26;;;;;;;;;;;;;;;22.16;34.61;102449.25;2201658;39;115264;-57
2021/04/12 05:45:08;;;;;;;;;;;;;;;22.17;34.44;102441.59;2211066;39;114767;-58
2021/04/12 05:46:49;;;;;;;;;;;;;;;22.20;34.50;102446.69;2208920;39;114698;-59
2021/04/12 05:48:30;;;;;;;;;;;;;;;22.22;34.54;102447.25;2204782;39;114751;-57
2021/04/12 05:50:12;;;;;;;;;;;;;;;22.23;34.24;102448.94;2210094;39;114934;-58
2021/04/12 05:51:53;;;;;;;;;;;;;;;22.27;34.13;102443.56;2209025;39;114660;-57
2021/04/12 05:53:36;;;;;;;;;;;;;;;22.29;34.23;102455.41;2214112;39;114847;-58
2021/04/12 05:55:17;;;;;;;;;;;;;;;22.31;33.97;102455.94;2210124;39;115582;-57
2021/04/12 05:56:58;;;;;;;;;;;;;;;22.32;33.73;102452.88;2209762;39;115549;-57
2021/04/12 05:58:32;;;;;;;;;;;;;;;22.34;34.12;102466.66;2204879;39;115777;-59
2021/04/12 06:00:15;;;;;;;;;;;;;;;22.35;33.79;102460.72;2208270;39;116187;-59
2021/04/12 06:01:56;;;;;;;;;;;;;;;22.38;33.62;102471.44;2201182;39;115518;-59
2021/04/12 06:03:35;;;;;;;;;;;;;;;22.42;33.94;102463.28;2210280;39;115874;-57
2021/04/12 06:05:16;;;;;;;;;;;;;;;22.43;33.54;102471.44;2204448;39;115656;-59
2021/04/12 06:06:57;;;;;;;;;;;;;;;22.44;33.74;102477.94;2208371;39;115539;-57
2021/04/12 06:08:38;;;;;;;;;;;;;;;22.47;33.70;102472.56;2209063;39;115868;-57
2021/04/12 06:10:19;;;;;;;;;;;;;;;22.49;33.67;102475.91;2212789;39;115756;-57
2021/04/12 06:11:53;;;;;;;;;;;;;;;22.52;34.14;102482.97;2209027;39;115684;-57
2021/04/12 06:13:25;;;;;;;;;;;;;;;22.53;34.14;102488.31;2207899;39;115497;-59
2021/04/12 06:14:56;;;;;;;;;;;;;;;22.54;33.82;102489.16;2208146;39;115590;-58
2021/04/12 06:16:43;;;;;;;;;;;;;;;22.57;33.75;102483.81;2205135;39;115641;-58
2021/04/12 06:18:18;;;;;;;;;;;;;;;22.60;34.00;102496.47;2213132;39;115399;-58
2021/04/12 06:19:59;;;;;;;;;;;;;;;22.61;33.66;102486.91;2209286;39;113716;-57
2021/04/12 06:21:40;;;;;;;;;;;;;;;22.62;33.99;102489.41;2210919;39;113770;-57
2021/04/12 06:23:18;;;;;;;;;;;;;;;22.66;33.56;102488.88;2212280;39;113802;-57
2021/04/12 06:24:59;;;;;;;;;;;;;;;22.69;33.95;102488.28;2213377;39;114423;-58
2021/04/12 06:26:40;;;;;;;;;;;;;;;22.70;33.53;102490.84;2214400;39;113727;-58
2021/04/12 06:28:11;;;;;;;;;;;;;;;22.72;33.67;102488.56;2210315;39;113780;-58
2021/04/12 06:29:52;;;;;;;;;;;;;;;22.73;33.32;102489.44;2211449;39;113651;-57
2021/04/12 06:31:33;;;;;;;;;;;;;;;22.74;33.46;102489.16;2214448;39;113696;-57
2021/04/12 06:33:15;;;;;;;;;;;;;;;22.75;33.36;102490.84;2213275;39;113617;-59
2021/04/12 06:34:56;;;;;;;;;;;;;;;22.74;33.41;102488.31;2212562;39;113770;-57
2021/04/12 06:36:34;;;;;;;;;;;;;;;22.75;32.90;102499.31;2212385;39;113878;-60
2021/04/12 06:38:09;;;;;;;;;;;;;;;22.75;33.26;102499.31;2206328;39;113784;-58
2021/04/12 06:39:47;;;;;;;;;;;;;;;22.75;33.17;102502.13;2205922;39;113872;-58
2021/04/12 06:41:38;;;;;;;;;;;;;;;22.75;33.18;102506.91;2212727;39;113639;-59
2021/04/12 06:43:29;;;;;;;;;;;;;;;22.74;33.29;102503.25;2212829;39;114376;-58
2021/04/12 06:45:03;;;;;;;;;;;;;;;22.74;33.32;102502.38;2209400;39;114757;-58
2021/04/12 06:46:44;;;;;;;;;;;;;;;22.74;33.18;102505.22;2209892;39;114851;-59
2021/04/12 06:48:25;;;;;;;;;;;;;;;22.73;33.31;102504.38;2205656;39;115128;-57
2021/04/12 06:49:59;;;;;;;;;;;;;;;22.73;33.15;102512.81;2211834;39;114905;-57
2021/04/12 06:51:40;;;;;;;;;;;;;;;22.71;33.09;102505.78;2206224;39;114816;-59
2021/04/12 06:53:21;;;;;;;;;;;;;;;22.69;33.34;102500.41;2209094;39;114940;-59
2021/04/12 06:55:02;;;;;;;;;;;;;;;22.67;33.37;102505.47;2211043;39;115509;-59
2021/04/12 06:56:43;;;;;;;;;;;;;;;22.67;33.35;102511.09;2211174;39;114750;-59
2021/04/12 06:58:14;;;;;;;;;;;;;;;22.66;33.35;102511.41;2208515;39;114971;-57
2021/04/12 06:59:55;;;;;;;;;;;;;;;22.63;33.42;102510.81;2211161;39;114878;-57
2021/04/12 07:01:34;;;;;;;;;;;;;;;22.62;33.17;102511.94;2210271;39;115043;-59
2021/04/12 07:03:16;;;;;;;;;;;;;;;22.62;33.36;102513.94;2203745;39;114984;-59
2021/04/12 07:04:58;;;;;;;;;;;;;;;22.59;33.64;102511.69;2213077;39;114982;-57
2021/04/12 07:06:40;;;;;;;;;;;;;;;22.58;33.60;102519.28;2211090;39;115559;-59
2021/04/12 07:08:15;;;;;;;;;;;;;;;22.57;33.62;102517.63;2210717;39;114506;-57
2021/04/12 07:09:58;;;;;;;;;;;;;;;22.56;33.46;102517.91;2212041;39;115433;-57
2021/04/12 07:12:08;;;;;;;;;;;;;;;22.53;33.76;102519.28;2212342;39;115313;-59
2021/04/12 07:14:28;;;;;;;;;;;;;;;22.51;33.65;102515.94;2206240;39;115657;-59
2021/04/12 07:16:09;;;;;;;;;;;;;;;22.50;33.73;102528.31;2202860;39;115545;-56
2021/04/12 07:17:50;;;;;;;;;;;;;;;22.47;33.68;102523.25;2203460;39;115520;-57
2021/04/12 07:19:31;;;;;;;;;;;;;;;22.46;34.31;102521.56;2208209;39;115520;-59
2021/04/12 07:21:17;;;;;;;;;;;;;;;22.45;34.17;102525.50;2211932;39;115145;-59
2021/04/12 07:22:58;;;;;;;;;;;;;;;22.43;34.29;102524.13;2205149;39;115570;-59
2021/04/12 07:24:39;;;;;;;;;;;;;;;22.42;34.34;102519.59;2204604;39;115685;-59
2021/04/12 07:26:12;;;;;;;;;;;;;;;22.41;34.31;102515.09;2207667;39;115537;-59
2021/04/12 07:27:57;;;;;;;;;;;;;;;22.38;34.48;102527.78;2212229;39;115679;-59
2021/04/12 07:29:32;;;;;;;;;;;;;;;22.37;34.34;102526.09;2206968;39;114476;-59
2021/04/12 07:31:23;;;;;;;;;;;;;;;22.35;34.41;102519.06;2205828;39;113836;-59
2021/04/12 07:33:04;;;;;;;;;;;;;;;22.33;34.17;102529.75;2210909;39;114043;-56
2021/04/12 07:34:45;;;;;;;;;;;;;;;22.32;34.10;102528.03;2211740;39;113753;-58
2021/04/12 07:36:35;;;;;;;;;;;;;;;22.30;34.45;102538.78;2212110;39;113900;-58
2021/04/12 07:38:16;;;;;;;;;;;;;;;22.27;34.27;102534.53;2207552;39;113841;-59
2021/04/12 07:39:57;;;;;;;;;;;;;;;22.27;34.11;102536.50;2205697;39;113792;-57
2021/04/12 07:41:35;;;;;;;;;;;;;;;22.24;33.97;102537.91;2204955;39;113943;-57
2021/04/12 07:43:16;;;;;;;;;;;;;;;22.24;34.00;102540.72;2208468;39;114066;-57
2021/04/12 07:44:49;;;;;;;;;;;;;;;22.22;34.01;102531.72;2212100;39;113781;-57
2021/04/12 07:46:33;;;;;;;;;;;;;;;22.20;34.54;102538.75;2206882;39;113673;-58
2021/04/12 07:48:24;;;;;;;;;;;;;;;22.17;34.38;102537.34;2202714;39;116038;-57
2021/04/12 07:50:05;;;;;;;;;;;;;;;22.15;34.69;102542.41;2201008;39;113791;-57
2021/04/12 07:51:39;;;;;;;;;;;;;;;22.15;34.42;102542.41;2209129;39;113821;-65
2021/04/12 07:53:22;;;;;;;;;;;;;;;22.15;34.58;102543.25;2210164;39;113962;-57
2021/04/12 07:55:07;;;;;;;;;;;;;;;22.13;34.69;102539.88;2207671;39;113764;-59
2021/04/12 07:56:48;;;;;;;;;;;;;;;22.12;34.32;102543.00;2210060;39;114959;-57
2021/04/12 07:58:29;;;;;;;;;;;;;;;22.08;34.13;102539.03;2212088;39;114722;-57
2021/04/12 08:00:01;;;;;;;;;;;;;;;22.04;34.46;102541.56;2212228;39;115008;-57
2021/04/12 08:01:37;;;;;;;;;;;;;;;22.02;33.98;102552.25;2212395;39;113939;-58
2021/04/12 08:03:18;;;;;;;;;;;;;;;21.99;33.89;102543.50;2212203;39;114343;-58
2021/04/12 08:05:09;;;;;;;;;;;;;;;21.95;34.29;102548.88;2205051;39;115415;-58
2021/04/12 08:06:50;;;;;;;;;;;;;;;21.94;33.91;102551.97;2204890;39;115213;-57
2021/04/12 08:08:21;;;;;;;;;;;;;;;21.90;34.16;102547.97;2212520;39;115032;-58
2021/04/12 08:10:08;;;;;;;;;;;;;;;21.86;34.24;102547.69;2212393;39;113739;-58
2021/04/12 08:11:49;;;;;;;;;;;;;;;21.84;33.92;102544.31;2207668;39;116206;-58
2021/04/12 08:13:30;;;;;;;;;;;;;;;21.83;34.04;102547.41;2209096;39;114901;-57
2021/04/12 08:15:06;;;;;;;;;;;;;;;21.82;34.01;102545.72;2211935;39;114857;-59
2021/04/12 08:16:57;;;;;;;;;;;;;;;21.76;33.80;102550.47;2211713;39;114905;-56
2021/04/12 08:18:38;;;;;;;;;;;;;;;21.76;33.86;102555.28;2207919;39;114980;-57
2021/04/12 08:20:20;;;;;;;;;;;;;;;21.73;34.09;102553.84;2202226;39;116192;-58
2021/04/12 08:22:01;;;;;;;;;;;;;;;21.72;33.94;102552.16;2207604;39;116062;-62
2021/04/12 08:23:36;;;;;;;;;;;;;;;21.73;33.61;102551.03;2204781;39;115210;-59
2021/04/12 08:25:22;;;;;;;;;;;;;;;21.74;33.98;102552.75;2210312;39;115783;-57